Time;durP1;ratioP1;P1;durP2;ratioP2;P2;SDS_P1;SDS_P2;PMS_P1;PMS_P2;Temp;Humidity;BMP_temperature;BMP_pressure;BME280_temperature;BME280_humidity;BME280_pressure;Samples;Min_cycle;Max_cycle;Signal;HPM_P1;HPM_P2
2021/03/19 00:00:25;;;;;;;5.57;3.60;;;;;;;-145.50;100.00;65435.88;4960843;28;20058;-74
2021/03/19 00:02:53;;;;;;;9.15;4.40;;;;;;;-145.50;100.00;65435.88;4965474;28;20047;-74
2021/03/19 00:05:22;;;;;;;6.82;3.47;;;;;;;-145.50;100.00;65435.88;4967058;28;20150;-74
2021/03/19 00:07:54;;;;;;;6.63;3.40;;;;;;;-145.50;100.00;65435.88;4965741;28;20113;-74
2021/03/19 00:10:24;;;;;;;9.32;3.97;;;;;;;-145.50;100.00;65435.88;4964181;28;20142;-74
2021/03/19 00:12:51;;;;;;;6.38;3.67;;;;;;;-145.50;100.00;65435.88;4960417;28;20059;-74
2021/03/19 00:15:20;;;;;;;7.20;3.75;;;;;;;-145.50;100.00;65435.88;4966741;28;20050;-74
2021/03/19 00:17:47;;;;;;;6.15;3.70;;;;;;;-145.50;100.00;65435.88;4961237;28;20067;-74
2021/03/19 00:20:29;;;;;;;7.65;4.18;;;;;;;-145.50;100.00;65435.88;4967931;28;20090;-75
2021/03/19 00:22:56;;;;;;;7.95;4.55;;;;;;;-145.50;100.00;65435.88;4954304;28;20049;-74
2021/03/19 00:25:22;;;;;;;6.18;3.83;;;;;;;-145.50;100.00;65435.88;4967025;28;20147;-74
2021/03/19 00:27:48;;;;;;;6.22;4.13;;;;;;;-145.50;100.00;65435.88;4967282;28;20086;-74
2021/03/19 00:30:15;;;;;;;10.10;3.70;;;;;;;-145.50;100.00;65435.88;4961671;28;20396;-74
2021/03/19 00:32:43;;;;;;;7.53;3.70;;;;;;;-145.50;100.00;65435.88;4960089;28;20051;-74
2021/03/19 00:35:11;;;;;;;7.45;3.45;;;;;;;-145.50;100.00;65435.88;4937752;28;20059;-74
2021/03/19 00:37:37;;;;;;;5.22;3.75;;;;;;;-145.50;100.00;65435.88;4957821;28;20570;-74
2021/03/19 00:40:06;;;;;;;6.57;4.03;;;;;;;-145.50;100.00;65435.88;4959536;28;20565;-74
2021/03/19 00:42:32;;;;;;;;;;;;;;;-145.50;100.00;65435.88;4966755;28;20506;-74
2021/03/19 00:44:58;;;;;;;8.32;3.83;;;;;;;-145.50;100.00;65435.88;4944223;28;19933;-74
2021/03/19 00:47:24;;;;;;;5.95;3.38;;;;;;;-145.50;100.00;65435.88;4966981;28;20102;-74
2021/03/19 00:49:50;;;;;;;9.95;4.43;;;;;;;-145.50;100.00;65435.88;4961798;28;20090;-74
2021/03/19 00:52:16;;;;;;;5.53;3.80;;;;;;;-145.50;100.00;65435.88;4949992;28;20059;-74
2021/03/19 00:54:42;;;;;;;7.32;4.35;;;;;;;-145.50;100.00;65435.88;4965533;28;20058;-74
2021/03/19 00:57:08;;;;;;;6.75;4.35;;;;;;;-145.50;100.00;65435.88;4961701;28;20063;-74
2021/03/19 00:59:34;;;;;;;8.27;4.63;;;;;;;-145.50;100.00;65435.88;4966596;28;20660;-74
2021/03/19 01:02:00;;;;;;;9.52;5.32;;;;;;;-145.50;100.00;65435.88;4957359;28;20542;-74
2021/03/19 01:04:27;;;;;;;8.52;4.93;;;;;;;-145.50;100.00;65435.88;4944318;28;20066;-73
2021/03/19 01:06:53;;;;;;;10.15;5.00;;;;;;;-145.50;100.00;65435.88;4943371;28;20065;-73
2021/03/19 01:09:19;;;;;;;8.90;4.53;;;;;;;-145.50;100.00;65435.88;4966425;28;20090;-73
2021/03/19 01:11:45;;;;;;;8.35;4.70;;;;;;;-145.50;100.00;65435.88;4965722;28;20055;-73
2021/03/19 01:14:13;;;;;;;13.90;5.50;;;;;;;-145.50;100.00;65435.88;4962337;28;20069;-73
2021/03/19 01:16:39;;;;;;;8.13;5.45;;;;;;;-145.50;100.00;65435.88;4944702;28;20090;-73
2021/03/19 01:19:05;;;;;;;12.75;5.80;;;;;;;-145.50;100.00;65435.88;4956635;28;20050;-75
2021/03/19 01:21:31;;;;;;;9.88;5.28;;;;;;;-145.50;100.00;65435.88;4965094;28;20070;-73
2021/03/19 01:23:57;;;;;;;8.55;5.20;;;;;;;-145.50;100.00;65435.88;4960235;28;20715;-75
2021/03/19 01:26:23;;;;;;;7.72;5.13;;;;;;;-145.50;100.00;65435.88;4966324;28;20062;-75
2021/03/19 01:28:49;;;;;;;11.25;5.97;;;;;;;-145.50;100.00;65435.88;4952855;28;20700;-75
2021/03/19 01:31:22;;;;;;;9.10;5.60;;;;;;;-145.50;100.00;65435.88;4953425;28;20089;-75
2021/03/19 01:33:48;;;;;;;9.05;5.45;;;;;;;-145.50;100.00;65435.88;4943325;28;20086;-75
2021/03/19 01:36:14;;;;;;;13.50;6.22;;;;;;;-145.50;100.00;65435.88;4953302;28;20090;-75
2021/03/19 01:38:40;;;;;;;9.35;6.03;;;;;;;-145.50;100.00;65435.88;4963783;28;20092;-75
2021/03/19 01:41:07;;;;;;;11.70;6.13;;;;;;;-145.50;100.00;65435.88;4959918;28;20070;-73
2021/03/19 01:44:00;;;;;;;15.43;6.55;;;;;;;-145.50;100.00;65435.88;4961403;28;20055;-73
2021/03/19 01:47:03;;;;;;;9.95;6.32;;;;;;;-145.50;100.00;65435.88;4952896;28;20059;-73
2021/03/19 01:50:07;;;;;;;13.32;6.70;;;;;;;-145.50;100.00;65435.88;4963859;28;20432;-73
2021/03/19 01:53:10;;;;;;;11.70;6.90;;;;;;;-145.50;100.00;65435.88;4958436;28;20051;-73
2021/03/19 01:56:14;;;;;;;9.20;6.60;;;;;;;-145.50;100.00;65435.88;4960977;28;20478;-73
2021/03/19 01:59:18;;;;;;;11.38;6.60;;;;;;;-145.50;100.00;65435.88;4952807;28;20082;-73
2021/03/19 02:02:21;;;;;;;11.15;6.30;;;;;;;-145.50;100.00;65435.88;4965473;28;20066;-73
2021/03/19 02:05:25;;;;;;;13.85;6.85;;;;;;;-145.50;100.00;65435.88;4962239;28;20066;-73
2021/03/19 02:08:31;;;;;;;9.98;6.40;;;;;;;-145.50;100.00;65435.88;4961350;28;20890;-73
2021/03/19 02:11:34;;;;;;;10.93;6.18;;;;;;;-145.50;100.00;65435.88;4941097;28;20499;-73
2021/03/19 02:14:38;;;;;;;11.63;6.38;;;;;;;-145.50;100.00;65435.88;4962121;28;20050;-73
2021/03/19 02:17:41;;;;;;;13.30;7.13;;;;;;;-145.50;100.00;65435.88;4965300;28;20539;-73
2021/03/19 02:20:45;;;;;;;10.90;6.63;;;;;;;-145.50;100.00;65435.88;4953013;28;20466;-73
2021/03/19 02:23:48;;;;;;;11.07;5.97;;;;;;;-145.50;100.00;65435.88;4950734;28;20070;-74
2021/03/19 02:26:52;;;;;;;12.20;7.05;;;;;;;-145.50;100.00;65435.88;4934483;28;20161;-74
2021/03/19 02:29:55;;;;;;;12.02;6.78;;;;;;;-145.50;100.00;65435.88;4960163;28;20063;-74
2021/03/19 02:32:24;;;;;;;14.57;7.03;;;;;;;-145.50;100.00;65435.88;4942548;28;20059;-74
2021/03/19 02:34:50;;;;;;;12.90;6.28;;;;;;;-145.50;100.00;65435.88;4950739;28;20490;-73
2021/03/19 02:37:20;;;;;;;10.18;6.30;;;;;;;-145.50;100.00;65435.88;4955618;28;20214;-74
2021/03/19 02:39:48;;;;;;;10.32;6.15;;;;;;;-145.50;100.00;65435.88;4956997;28;20059;-74
2021/03/19 02:42:21;;;;;;;10.57;6.60;;;;;;;-145.50;100.00;65435.88;4938430;28;20059;-74
2021/03/19 02:44:47;;;;;;;12.30;6.45;;;;;;;-145.50;100.00;65435.88;4958468;28;20464;-74
2021/03/19 02:47:14;;;;;;;11.45;6.72;;;;;;;-145.50;100.00;65435.88;4959764;28;20519;-74
2021/03/19 02:49:40;;;;;;;11.75;6.40;;;;;;;-145.50;100.00;65435.88;4957959;28;20066;-75
2021/03/19 02:52:19;;;;;;;9.93;6.32;;;;;;;-145.50;100.00;65435.88;4957032;28;20059;-74
2021/03/19 02:54:45;;;;;;;9.98;6.45;;;;;;;-145.50;100.00;65435.88;4962103;28;20062;-74
2021/03/19 02:57:11;;;;;;;11.15;6.85;;;;;;;-145.50;100.00;65435.88;4963627;28;20058;-74
2021/03/19 02:59:37;;;;;;;11.57;6.53;;;;;;;-145.50;100.00;65435.88;4950754;28;20069;-74
2021/03/19 03:02:04;;;;;;;13.20;7.03;;;;;;;-145.50;100.00;65435.88;4964540;28;20059;-74
2021/03/19 03:04:30;;;;;;;8.57;6.43;;;;;;;-145.50;100.00;65435.88;4937970;28;20069;-74
2021/03/19 03:06:57;;;;;;;10.70;6.50;;;;;;;-145.50;100.00;65435.88;4944059;28;20085;-74
2021/03/19 03:09:29;;;;;;;9.75;6.82;;;;;;;-145.50;100.00;65435.88;4959336;28;20085;-74
2021/03/19 03:11:56;;;;;;;12.10;6.05;;;;;;;-145.50;100.00;65435.88;4963881;28;20149;-74
2021/03/19 03:14:25;;;;;;;11.73;6.10;;;;;;;-145.50;100.00;65435.88;4947837;28;20063;-75
2021/03/19 03:16:53;;;;;;;10.30;7.18;;;;;;;-145.50;100.00;65435.88;4946055;28;20062;-74
2021/03/19 03:19:23;;;;;;;9.88;6.15;;;;;;;-145.50;100.00;65435.88;4952186;28;20154;-74
2021/03/19 03:21:50;;;;;;;12.95;7.10;;;;;;;-145.50;100.00;65435.88;4946386;28;20490;-74
2021/03/19 03:24:17;;;;;;;9.90;6.15;;;;;;;-145.50;100.00;65435.88;4964937;28;20114;-74
2021/03/19 03:26:43;;;;;;;10.68;6.65;;;;;;;-145.50;100.00;65435.88;4959081;28;20062;-74
2021/03/19 03:29:11;;;;;;;9.32;6.18;;;;;;;-145.50;100.00;65435.88;4968716;28;20109;-74
2021/03/19 03:31:38;;;;;;;11.10;5.85;;;;;;;-145.50;100.00;65435.88;4943691;28;20553;-74
2021/03/19 03:34:05;;;;;;;11.00;6.38;;;;;;;-145.50;100.00;65435.88;4958667;28;20158;-74
2021/03/19 03:36:33;;;;;;;9.30;6.13;;;;;;;-145.50;100.00;65435.88;4964811;28;20066;-74
2021/03/19 03:39:01;;;;;;;11.60;6.38;;;;;;;-145.50;100.00;65435.88;4961973;28;20062;-74
2021/03/19 03:41:28;;;;;;;10.88;6.05;;;;;;;-145.50;100.00;65435.88;4966267;28;20144;-74
2021/03/19 03:43:54;;;;;;;10.75;6.57;;;;;;;-145.50;100.00;65435.88;4956535;28;20066;-74
2021/03/19 03:46:26;;;;;;;9.25;6.07;;;;;;;-145.50;100.00;65435.88;4968492;28;20137;-74
2021/03/19 03:48:56;;;;;;;10.93;6.00;;;;;;;-145.50;100.00;65435.88;4961526;28;20061;-74
2021/03/19 03:51:24;;;;;;;8.63;5.93;;;;;;;-145.50;100.00;65435.88;4968688;28;20209;-74
2021/03/19 03:53:51;;;;;;;9.85;6.80;;;;;;;-145.50;100.00;65435.88;4962507;28;20183;-74
2021/03/19 03:56:17;;;;;;;9.55;6.18;;;;;;;-145.50;100.00;65435.88;4947748;28;20058;-74
2021/03/19 03:58:43;;;;;;;10.82;5.85;;;;;;;-145.50;100.00;65435.88;4963987;28;20109;-74
2021/03/19 04:01:10;;;;;;;9.65;6.20;;;;;;;-145.50;100.00;65435.88;4962597;28;20086;-74
2021/03/19 04:03:36;;;;;;;8.10;6.15;;;;;;;-145.50;100.00;65435.88;4967126;28;20561;-74
2021/03/19 04:06:04;;;;;;;13.75;6.97;;;;;;;-145.50;100.00;65435.88;4962500;28;20065;-74
2021/03/19 04:08:31;;;;;;;11.32;6.32;;;;;;;-145.50;100.00;65435.88;4951073;28;20121;-74
2021/03/19 04:11:01;;;;;;;11.35;6.47;;;;;;;-145.50;100.00;65435.88;4933945;28;20251;-74
2021/03/19 04:13:29;;;;;;;10.88;6.10;;;;;;;-145.50;100.00;65435.88;4958867;28;20054;-74
2021/03/19 04:15:56;;;;;;;12.43;5.97;;;;;;;-145.50;100.00;65435.88;4959427;28;20126;-74
2021/03/19 04:18:24;;;;;;;11.57;5.85;;;;;;;-145.50;100.00;65435.88;4956877;28;20141;-74
2021/03/19 04:20:53;;;;;;;11.45;6.55;;;;;;;-145.50;100.00;65435.88;4953310;28;20122;-74
2021/03/19 04:23:31;;;;;;;9.75;5.75;;;;;;;-145.50;100.00;65435.88;4930045;28;20058;-74
2021/03/19 04:25:59;;;;;;;12.05;5.68;;;;;;;-145.50;100.00;65435.88;4962838;28;20142;-74
2021/03/19 04:28:32;;;;;;;9.63;5.22;;;;;;;-145.50;100.00;65435.88;4953910;28;20503;-74
2021/03/19 04:30:59;;;;;;;10.15;5.18;;;;;;;-145.50;100.00;65435.88;4960223;28;20086;-74
2021/03/19 04:33:27;;;;;;;11.15;5.60;;;;;;;-145.50;100.00;65435.88;4954747;28;20534;-74
2021/03/19 04:36:34;;;;;;;13.27;5.30;;;;;;;-145.50;100.00;65435.88;4961509;28;20145;-74
2021/03/19 04:39:06;;;;;;;9.35;5.18;;;;;;;-145.50;100.00;65435.88;4944539;28;20154;-74
2021/03/19 04:41:32;;;;;;;8.45;4.85;;;;;;;-145.50;100.00;65435.88;4963821;28;20201;-74
2021/03/19 04:43:59;;;;;;;11.13;5.57;;;;;;;-145.50;100.00;65435.88;4961613;28;20517;-74
2021/03/19 04:46:25;;;;;;;11.05;4.80;;;;;;;-145.50;100.00;65435.88;4966247;28;20071;-74
2021/03/19 04:48:51;;;;;;;10.73;5.45;;;;;;;-145.50;100.00;65435.88;4964766;28;20109;-74
2021/03/19 04:51:17;;;;;;;13.02;5.63;;;;;;;-145.50;100.00;65435.88;4953500;28;20054;-74
2021/03/19 04:53:51;;;;;;;10.60;5.38;;;;;;;-145.50;100.00;65435.88;4945297;28;20490;-74
2021/03/19 04:56:18;;;;;;;14.23;4.97;;;;;;;-145.50;100.00;65435.88;4934265;28;20062;-73
2021/03/19 04:58:43;;;;;;;7.70;4.85;;;;;;;-145.50;100.00;65435.88;4963788;28;20090;-72
2021/03/19 05:01:09;;;;;;;8.60;4.60;;;;;;;-145.50;100.00;65435.88;4961347;28;20433;-72
2021/03/19 05:03:35;;;;;;;10.77;4.25;;;;;;;-145.50;100.00;65435.88;4964503;28;20059;-73
2021/03/19 05:06:02;;;;;;;14.63;5.70;;;;;;;-145.50;100.00;65435.88;4955280;28;20058;-72
2021/03/19 05:08:28;;;;;;;7.95;4.82;;;;;;;-145.50;100.00;65435.88;4952110;28;20062;-72
2021/03/19 05:10:54;;;;;;;8.85;4.53;;;;;;;-145.50;100.00;65435.88;4949148;28;20874;-72
2021/03/19 05:13:20;;;;;;;9.48;5.53;;;;;;;-145.50;100.00;65435.88;4962950;28;20462;-72
2021/03/19 05:15:46;;;;;;;10.05;4.75;;;;;;;-145.50;100.00;65435.88;4967362;28;20051;-72
2021/03/19 05:18:13;;;;;;;10.27;4.63;;;;;;;-145.50;100.00;65435.88;4956657;28;20097;-72
2021/03/19 05:20:39;;;;;;;9.82;4.90;;;;;;;-145.50;100.00;65435.88;4963662;28;20092;-72
2021/03/19 05:23:17;;;;;;;7.43;4.40;;;;;;;-145.50;100.00;65435.88;4959147;28;20054;-72
2021/03/19 05:25:43;;;;;;;8.52;4.40;;;;;;;-145.50;100.00;65435.88;4965888;28;20423;-72
2021/03/19 05:28:09;;;;;;;7.22;3.95;;;;;;;-145.50;100.00;65435.88;4942916;28;20094;-72
2021/03/19 05:30:35;;;;;;;9.75;4.80;;;;;;;-145.50;100.00;65435.88;4962451;28;20066;-73
2021/03/19 05:33:05;;;;;;;9.57;4.90;;;;;;;-145.50;100.00;65435.88;4961085;28;20061;-72
2021/03/19 05:35:32;;;;;;;9.05;4.78;;;;;;;-145.50;100.00;65435.88;4958706;28;20141;-72
2021/03/19 05:37:58;;;;;;;7.95;4.78;;;;;;;-145.50;100.00;65435.88;4965464;28;20051;-73
2021/03/19 05:40:34;;;;;;;11.93;4.95;;;;;;;-145.50;100.00;65435.88;4960545;28;20064;-73
2021/03/19 05:43:21;;;;;;;10.65;5.18;;;;;;;-145.50;100.00;65435.88;4963689;28;20546;-73
2021/03/19 05:45:57;;;;;;;8.85;3.83;;;;;;;-145.50;100.00;65435.88;4955237;28;20089;-73
2021/03/19 05:48:28;;;;;;;7.68;4.38;;;;;;;-145.50;100.00;65435.88;4960768;28;20478;-73
2021/03/19 05:50:55;;;;;;;11.70;4.38;;;;;;;-145.50;100.00;65435.88;4955783;28;20869;-73
2021/03/19 05:53:40;;;;;;;14.85;4.25;;;;;;;-145.50;100.00;65435.88;4958844;28;20058;-73
2021/03/19 05:56:29;;;;;;;9.98;4.38;;;;;;;-145.50;100.00;65435.88;4944169;28;20562;-73
2021/03/19 05:58:56;;;;;;;9.20;4.20;;;;;;;-145.50;100.00;65435.88;4960464;28;20055;-74
2021/03/19 06:01:22;;;;;;;6.93;3.90;;;;;;;-145.50;100.00;65435.88;4957470;28;20082;-74
2021/03/19 06:03:49;;;;;;;8.80;3.90;;;;;;;-145.50;100.00;65435.88;4947608;28;20050;-73
2021/03/19 06:06:16;;;;;;;7.55;4.05;;;;;;;-145.50;100.00;65435.88;4966167;28;20067;-72
2021/03/19 06:08:45;;;;;;;9.43;4.45;;;;;;;-145.50;100.00;65435.88;4958962;28;20089;-71
2021/03/19 06:11:19;;;;;;;8.93;4.60;;;;;;;-145.50;100.00;65435.88;4961861;28;20149;-72
2021/03/19 06:14:01;;;;;;;9.20;4.47;;;;;;;-145.50;100.00;65435.88;4959464;28;20062;-71
2021/03/19 06:16:49;;;;;;;9.18;4.18;;;;;;;-145.50;100.00;65435.88;4964858;28;20133;-72
2021/03/19 06:19:27;;;;;;;7.38;4.15;;;;;;;-145.50;100.00;65435.88;4954888;28;20066;-72
2021/03/19 06:22:07;;;;;;;10.60;4.38;;;;;;;-145.50;100.00;65435.88;4940100;28;20152;-72
2021/03/19 06:24:39;;;;;;;13.18;4.78;;;;;;;-145.50;100.00;65435.88;4952700;28;20172;-72
2021/03/19 06:27:38;;;;;;;8.95;4.55;;;;;;;-145.50;100.00;65435.88;4942820;28;20063;-72
2021/03/19 06:30:10;;;;;;;;;;;;;;;-145.50;100.00;65435.88;4951858;28;20109;-72
2021/03/19 06:32:36;;;;;;;7.40;4.22;;;;;;;-145.50;100.00;65435.88;4963410;28;19999;-72
2021/03/19 06:35:09;;;;;;;11.15;5.13;;;;;;;-145.50;100.00;65435.88;4958070;28;20157;-73
2021/03/19 06:37:48;;;;;;;8.35;4.32;;;;;;;-145.50;100.00;65435.88;4964445;28;20066;-73
2021/03/19 06:40:32;;;;;;;8.65;4.65;;;;;;;-145.50;100.00;65435.88;4940437;28;20066;-74
2021/03/19 06:43:18;;;;;;;11.38;6.80;;;;;;;-145.50;100.00;65435.88;4946708;28;20157;-72
2021/03/19 06:45:49;;;;;;;8.73;4.72;;;;;;;-145.50;100.00;65435.88;4961806;28;20696;-73
2021/03/19 06:48:35;;;;;;;11.18;4.70;;;;;;;-145.50;100.00;65435.88;4944333;28;20055;-73
2021/03/19 06:51:08;;;;;;;9.50;4.57;;;;;;;-145.50;100.00;65435.88;4949418;28;20066;-73
2021/03/19 06:53:34;;;;;;;10.20;4.63;;;;;;;-145.50;100.00;65435.88;4946992;28;20430;-73
2021/03/19 06:56:15;;;;;;;7.72;4.43;;;;;;;-145.50;100.00;65435.88;4965232;28;20543;-73
2021/03/19 06:58:46;;;;;;;12.55;4.93;;;;;;;-145.50;100.00;65435.88;4958631;28;20055;-74
2021/03/19 07:01:30;;;;;;;8.00;4.93;;;;;;;-145.50;100.00;65435.88;4948390;28;20142;-75
2021/03/19 07:04:16;;;;;;;8.77;4.80;;;;;;;-145.50;100.00;65435.88;4952505;28;20525;-74
2021/03/19 07:07:03;;;;;;;12.05;5.18;;;;;;;-145.50;100.00;65435.88;4965162;28;20156;-74
2021/03/19 07:09:45;;;;;;;9.15;4.78;;;;;;;-145.50;100.00;65435.88;4952041;28;20184;-72
2021/03/19 07:12:45;;;;;;;9.45;4.50;;;;;;;-145.50;100.00;65435.88;4968242;28;20055;-72
2021/03/19 07:15:36;;;;;;;8.02;4.20;;;;;;;-145.50;100.00;65435.88;4968215;28;20117;-72
2021/03/19 07:18:12;;;;;;;7.65;4.10;;;;;;;-145.50;100.00;65435.88;4957778;28;20166;-73
2021/03/19 07:21:21;;;;;;;10.52;4.05;;;;;;;-145.50;100.00;65435.88;4940371;28;20061;-72
2021/03/19 07:24:12;;;;;;;8.85;4.25;;;;;;;-145.50;100.00;65435.88;4968000;28;20059;-73
2021/03/19 07:26:48;;;;;;;9.27;4.47;;;;;;;-145.50;100.00;65435.88;4962338;28;20121;-73
2021/03/19 07:29:53;;;;;;;10.85;4.97;;;;;;;-145.50;100.00;65435.88;4968358;28;20086;-73
2021/03/19 07:32:37;;;;;;;8.57;4.30;;;;;;;-145.50;100.00;65435.88;4950977;28;20086;-74
2021/03/19 07:35:16;;;;;;;13.20;4.53;;;;;;;-145.50;100.00;65435.88;4956603;28;20055;-74
2021/03/19 07:38:03;;;;;;;8.52;4.13;;;;;;;-145.50;100.00;65435.88;4944349;28;20117;-75
2021/03/19 07:40:50;;;;;;;8.20;4.20;;;;;;;-145.50;100.00;65435.88;4965431;28;20093;-74
2021/03/19 07:43:25;;;;;;;9.05;4.22;;;;;;;-145.50;100.00;65435.88;4949717;28;20182;-74
2021/03/19 07:46:13;;;;;;;6.88;3.88;;;;;;;-145.50;100.00;65435.88;4963154;28;20220;-74
2021/03/19 07:49:16;;;;;;;8.63;3.80;;;;;;;-145.50;100.00;65435.88;4938050;28;20091;-74
2021/03/19 07:52:00;;;;;;;10.43;4.38;;;;;;;-145.50;100.00;65435.88;4962699;28;20455;-74
2021/03/19 07:54:41;;;;;;;8.35;3.28;;;;;;;-145.50;100.00;65435.88;4958574;28;20058;-74
2021/03/19 07:57:26;;;;;;;12.82;3.60;;;;;;;-145.50;100.00;65435.88;4964703;28;20597;-74
2021/03/19 08:00:15;;;;;;;4.60;3.15;;;;;;;-145.50;100.00;65435.88;4956849;28;20059;-74
2021/03/19 08:02:44;;;;;;;9.20;4.68;;;;;;;-145.50;100.00;65435.88;4966711;28;20125;-74
2021/03/19 08:05:23;;;;;;;9.80;4.15;;;;;;;-145.50;100.00;65435.88;4942387;28;20125;-75
2021/03/19 08:08:04;;;;;;;6.68;3.10;;;;;;;-145.50;100.00;65435.88;4958918;28;20059;-74
2021/03/19 08:10:37;;;;;;;7.13;3.15;;;;;;;-145.50;100.00;65435.88;4941207;28;20574;-75
2021/03/19 08:13:17;;;;;;;7.13;2.95;;;;;;;-145.50;100.00;65435.88;4944987;28;20094;-75
2021/03/19 08:16:22;;;;;;;4.93;2.38;;;;;;;-145.50;100.00;65435.88;4943125;28;20090;-74
2021/03/19 08:19:07;;;;;;;11.57;3.58;;;;;;;-145.50;100.00;65435.88;4938457;28;20063;-74
2021/03/19 08:21:49;;;;;;;10.45;3.25;;;;;;;-145.50;100.00;65435.88;4960904;28;20086;-74
2021/03/19 08:24:33;;;;;;;5.95;2.55;;;;;;;-145.50;100.00;65435.88;4966986;28;20507;-75
2021/03/19 08:27:26;;;;;;;4.72;2.58;;;;;;;-145.50;100.00;65435.88;4936191;28;20139;-74
2021/03/19 08:30:13;;;;;;;4.88;2.28;;;;;;;-145.50;100.00;65435.88;4957171;28;20114;-75
2021/03/19 08:33:27;;;;;;;8.20;2.38;;;;;;;-145.50;100.00;65435.88;4958209;28;20055;-74
2021/03/19 08:36:20;;;;;;;4.45;2.03;;;;;;;-145.50;100.00;65435.88;4900273;28;20167;-74
2021/03/19 08:38:53;;;;;;;3.70;2.00;;;;;;;-145.50;100.00;65435.88;4960059;28;20073;-74
2021/03/19 08:41:23;;;;;;;3.53;1.45;;;;;;;-145.50;100.00;65435.88;4959430;28;20129;-74
2021/03/19 08:43:53;;;;;;;3.80;2.00;;;;;;;-145.50;100.00;65435.88;4960664;28;20065;-74
2021/03/19 08:46:30;;;;;;;2.80;1.65;;;;;;;-145.50;100.00;65435.88;4966059;28;20055;-74
2021/03/19 08:49:03;;;;;;;2.78;1.38;;;;;;;-145.50;100.00;65435.88;4943357;28;20094;-75
2021/03/19 08:51:30;;;;;;;2.95;1.40;;;;;;;-145.50;100.00;65435.88;4948855;28;20055;-75
2021/03/19 08:54:17;;;;;;;4.82;1.17;;;;;;;-145.50;100.00;65435.88;4954948;28;20157;-74
2021/03/19 08:56:55;;;;;;;3.47;1.35;;;;;;;-145.50;100.00;65435.88;4938738;28;20058;-75
2021/03/19 08:59:33;;;;;;;2.93;1.40;;;;;;;-145.50;100.00;65435.88;4959233;28;20066;-75
2021/03/19 09:02:00;;;;;;;2.70;1.48;;;;;;;-145.50;100.00;65435.88;4965597;28;20149;-75
2021/03/19 09:04:52;;;;;;;2.65;1.50;;;;;;;-145.50;100.00;65435.88;4947055;28;20486;-75
2021/03/19 09:07:29;;;;;;;5.10;1.90;;;;;;;-145.50;100.00;65435.88;4963210;28;20574;-76
2021/03/19 09:10:01;;;;;;;5.25;1.25;;;;;;;-145.50;100.00;65435.88;4962566;28;20058;-75
2021/03/19 09:12:30;;;;;;;2.10;1.40;;;;;;;-145.50;100.00;65435.88;4965232;28;20444;-74
2021/03/19 09:15:15;;;;;;;4.28;1.65;;;;;;;-145.50;100.00;65435.88;4972521;28;20415;-75
2021/03/19 09:17:44;;;;;;;4.35;2.50;;;;;;;-145.50;100.00;65435.88;4947527;28;20062;-75
2021/03/19 09:20:24;;;;;;;6.80;2.50;;;;;;;-145.50;100.00;65435.88;4965645;28;20109;-74
2021/03/19 09:23:09;;;;;;;4.32;2.15;;;;;;;-145.50;100.00;65435.88;4943303;28;20546;-74
2021/03/19 09:26:16;;;;;;;7.13;2.40;;;;;;;-145.50;100.00;65435.88;4964809;28;20062;-74
2021/03/19 09:28:48;;;;;;;4.28;2.20;;;;;;;-145.50;100.00;65435.88;4960932;28;20059;-74
2021/03/19 09:31:26;;;;;;;5.45;2.53;;;;;;;-145.50;100.00;65435.88;4965837;28;20069;-75
2021/03/19 09:33:58;;;;;;;5.60;2.75;;;;;;;-145.50;100.00;65435.88;4944198;28;20055;-74
2021/03/19 09:36:57;;;;;;;7.93;2.67;;;;;;;-145.50;100.00;65435.88;4952835;28;20062;-74
2021/03/19 09:39:48;;;;;;;3.78;2.28;;;;;;;-145.50;100.00;65435.88;4959303;28;20051;-72
2021/03/19 09:42:17;;;;;;;3.65;2.40;;;;;;;-145.50;100.00;65435.88;4944979;29;20147;-73
2021/03/19 09:44:47;;;;;;;5.75;2.40;;;;;;;-145.50;100.00;65435.88;4945200;28;20061;-72
2021/03/19 09:47:16;;;;;;;6.38;2.80;;;;;;;-145.50;100.00;65435.88;4963192;28;20110;-72
2021/03/19 09:49:43;;;;;;;6.35;2.63;;;;;;;-145.50;100.00;65435.88;4956910;28;20054;-72
2021/03/19 09:52:15;;;;;;;5.93;2.65;;;;;;;-145.50;100.00;65435.88;4948581;28;20074;-73
2021/03/19 09:54:42;;;;;;;4.63;2.67;;;;;;;-145.50;100.00;65435.88;4949586;28;20162;-73
2021/03/19 09:57:12;;;;;;;4.80;2.50;;;;;;;-145.50;100.00;65435.88;4945486;28;20467;-72
2021/03/19 09:59:42;;;;;;;7.60;2.80;;;;;;;-145.50;100.00;65435.88;4956789;28;20180;-73
2021/03/19 10:02:34;;;;;;;3.83;2.28;;;;;;;-145.50;100.00;65435.88;4950404;28;20133;-72
2021/03/19 10:05:14;;;;;;;7.68;2.60;;;;;;;-145.50;100.00;65435.88;4965929;28;20063;-72
2021/03/19 10:07:48;;;;;;;5.20;2.30;;;;;;;-145.50;100.00;65435.88;4941850;28;20054;-72
2021/03/19 10:10:33;;;;;;;4.47;2.28;;;;;;;-145.50;100.00;65435.88;4965397;28;20058;-72
2021/03/19 10:13:23;;;;;;;4.65;2.28;;;;;;;-145.50;100.00;65435.88;4953993;28;20062;-73
2021/03/19 10:15:52;;;;;;;4.68;2.58;;;;;;;-145.50;100.00;65435.88;4961172;28;20624;-73
2021/03/19 10:18:27;;;;;;;5.45;2.35;;;;;;;-145.50;100.00;65435.88;4959749;28;20062;-73
2021/03/19 10:20:57;;;;;;;5.07;2.55;;;;;;;-145.50;100.00;65435.88;4964920;28;20086;-73
2021/03/19 10:23:24;;;;;;;4.93;2.60;;;;;;;-145.50;100.00;65435.88;4958956;28;20570;-73
2021/03/19 10:25:51;;;;;;;5.55;2.65;;;;;;;-145.50;100.00;65435.88;4965095;28;20058;-73
2021/03/19 10:28:17;;;;;;;6.90;2.95;;;;;;;-145.50;100.00;65435.88;4955996;28;20090;-72
2021/03/19 10:30:53;;;;;;;5.15;2.85;;;;;;;-145.50;100.00;65435.88;4960554;28;20062;-72
2021/03/19 10:33:23;;;;;;;5.68;2.97;;;;;;;-145.50;100.00;65435.88;4958230;28;20071;-72
2021/03/19 10:35:55;;;;;;;5.78;2.75;;;;;;;-145.50;100.00;65435.88;4943106;28;20055;-72
2021/03/19 10:38:29;;;;;;;5.57;2.85;;;;;;;-145.50;100.00;65435.88;4953897;28;20066;-73
2021/03/19 10:41:03;;;;;;;6.40;3.28;;;;;;;-145.50;100.00;65435.88;4934539;28;20448;-73
2021/03/19 10:43:51;;;;;;;6.85;3.50;;;;;;;-145.50;100.00;65435.88;4942805;28;20558;-73
2021/03/19 10:46:45;;;;;;;4.80;2.85;;;;;;;-145.50;100.00;65435.88;4956566;28;20197;-73
2021/03/19 10:49:19;;;;;;;8.68;3.80;;;;;;;-145.50;100.00;65435.88;4957985;28;20059;-72
2021/03/19 10:51:52;;;;;;;7.65;4.13;;;;;;;-145.50;100.00;65435.88;4940211;28;20095;-72
2021/03/19 10:54:28;;;;;;;8.10;4.10;;;;;;;-145.50;100.00;65435.88;4964366;28;20074;-73
2021/03/19 10:57:00;;;;;;;7.18;3.60;;;;;;;-145.50;100.00;65435.88;4925840;28;20126;-72
2021/03/19 10:59:26;;;;;;;5.85;3.20;;;;;;;-145.50;100.00;65435.88;4965246;28;20077;-73
2021/03/19 11:01:54;;;;;;;8.00;3.60;;;;;;;-145.50;100.00;65435.88;4958858;28;20105;-73
2021/03/19 11:04:27;;;;;;;7.82;3.40;;;;;;;-145.50;100.00;65435.88;4947556;28;20113;-73
2021/03/19 11:06:54;;;;;;;8.20;3.70;;;;;;;-145.50;100.00;65435.88;4964999;28;20137;-72
2021/03/19 11:09:24;;;;;;;5.28;2.95;;;;;;;-145.50;100.00;65435.88;4955654;28;20062;-72
2021/03/19 11:11:56;;;;;;;6.80;3.67;;;;;;;-145.50;100.00;65435.88;4960179;28;20054;-73
2021/03/19 11:14:27;;;;;;;7.18;3.72;;;;;;;-145.50;100.00;65435.88;4928564;28;20059;-73
2021/03/19 11:17:14;;;;;;;6.93;3.45;;;;;;;-145.50;100.00;65435.88;4965026;28;20073;-73
2021/03/19 11:19:58;;;;;;;7.30;3.42;;;;;;;-145.50;100.00;65435.88;4947226;28;20086;-74
2021/03/19 11:22:39;;;;;;;6.57;3.20;;;;;;;-145.50;100.00;65435.88;4959715;28;20113;-73
2021/03/19 11:25:42;;;;;;;6.07;3.50;;;;;;;-145.50;100.00;65435.88;4938236;28;20080;-73
2021/03/19 11:28:29;;;;;;;6.53;3.20;;;;;;;-145.50;100.00;65435.88;4953939;28;20065;-73
2021/03/19 11:31:29;;;;;;;7.68;3.35;;;;;;;-145.50;100.00;65435.88;4958441;28;20478;-73
2021/03/19 11:34:14;;;;;;;6.38;3.25;;;;;;;-145.50;100.00;65435.88;4964695;28;20066;-74
2021/03/19 11:36:58;;;;;;;4.95;2.53;;;;;;;-145.50;100.00;65435.88;4945963;28;20062;-74
2021/03/19 11:39:33;;;;;;;5.75;2.75;;;;;;;-145.50;100.00;65435.88;4956651;28;20059;-74
2021/03/19 11:42:00;;;;;;;5.25;3.35;;;;;;;-145.50;100.00;65435.88;4938323;28;20534;-74
2021/03/19 11:44:26;;;;;;;7.43;2.95;;;;;;;-145.50;100.00;65435.88;4960999;28;20137;-74